Time;durP1;ratioP1;P1;durP2;ratioP2;P2;SDS_P1;SDS_P2;PMS_P1;PMS_P2;Temp;Humidity;BMP_temperature;BMP_pressure;BME280_temperature;BME280_humidity;BME280_pressure;Samples;Min_cycle;Max_cycle;Signal;HPM_P1;HPM_P2
2022/08/08 00:00:18;;;;;;;2.03;1.93;;;;;;;;;;5042265;28;20237;-59
2022/08/08 00:02:47;;;;;;;1.87;1.77;;;;;;;;;;5059119;28;20277;-59
2022/08/08 00:05:17;;;;;;;2.00;1.90;;;;;;;;;;5060828;28;20222;-59
2022/08/08 00:07:43;;;;;;;2.10;2.00;;;;;;;;;;5060500;28;20252;-59
2022/08/08 00:10:22;;;;;;;1.90;1.80;;;;;;;;;;5066098;28;20592;-59
2022/08/08 00:12:55;;;;;;;1.80;1.77;;;;;;;;;;5062052;28;20183;-59
2022/08/08 00:15:22;;;;;;;1.90;1.80;;;;;;;;;;5057953;28;22359;-59
2022/08/08 00:17:48;;;;;;;1.93;1.83;;;;;;;;;;5065420;28;20652;-59
2022/08/08 00:20:15;;;;;;;1.80;1.70;;;;;;;;;;5048821;28;20218;-58
2022/08/08 00:22:41;;;;;;;1.73;1.70;;;;;;;;;;5064322;28;20194;-59
2022/08/08 00:25:16;;;;;;;1.60;1.60;;;;;;;;;;5070425;28;20240;-59
2022/08/08 00:27:42;;;;;;;1.60;1.60;;;;;;;;;;5062564;28;20206;-59
2022/08/08 00:30:08;;;;;;;1.77;1.70;;;;;;;;;;5061817;28;20320;-59
2022/08/08 00:32:46;;;;;;;1.73;1.70;;;;;;;;;;5069060;28;20586;-59
2022/08/08 00:35:30;;;;;;;1.70;1.70;;;;;;;;;;5068403;28;20221;-58
2022/08/08 00:38:05;;;;;;;1.60;1.60;;;;;;;;;;5067186;28;20554;-58
2022/08/08 00:40:31;;;;;;;1.30;1.30;;;;;;;;;;5063293;28;20202;-59
2022/08/08 00:42:57;;;;;;;1.40;1.40;;;;;;;;;;5066760;28;20183;-59
2022/08/08 00:45:35;;;;;;;1.20;1.20;;;;;;;;;;5067410;28;20272;-58
2022/08/08 00:48:20;;;;;;;1.20;1.20;;;;;;;;;;5068030;28;20199;-59
2022/08/08 00:51:06;;;;;;;1.30;1.30;;;;;;;;;;5069465;28;20270;-58
2022/08/08 00:53:50;;;;;;;1.40;1.40;;;;;;;;;;5065007;28;20237;-58
2022/08/08 00:56:45;;;;;;;1.40;1.40;;;;;;;;;;5070386;28;20198;-59
2022/08/08 00:59:20;;;;;;;1.20;1.20;;;;;;;;;;5053250;28;20229;-59
2022/08/08 01:01:55;;;;;;;1.40;1.40;;;;;;;;;;5065024;28;20191;-59
2022/08/08 01:04:32;;;;;;;1.30;1.30;;;;;;;;;;5065187;28;20190;-58
2022/08/08 01:07:01;;;;;;;1.50;1.50;;;;;;;;;;5063573;28;20263;-58
2022/08/08 01:09:27;;;;;;;1.50;1.50;;;;;;;;;;5058680;28;20179;-59
2022/08/08 01:11:53;;;;;;;1.40;1.40;;;;;;;;;;5065788;28;20194;-59
2022/08/08 01:14:42;;;;;;;1.40;1.40;;;;;;;;;;5064740;28;20187;-59
2022/08/08 01:17:08;;;;;;;1.40;1.40;;;;;;;;;;5062317;28;20645;-58
2022/08/08 01:19:34;;;;;;;1.60;1.60;;;;;;;;;;5068330;28;20215;-59
2022/08/08 01:22:19;;;;;;;1.40;1.40;;;;;;;;;;5064355;28;20332;-59
2022/08/08 01:25:03;;;;;;;1.50;1.50;;;;;;;;;;5067194;28;20976;-59
2022/08/08 01:27:50;;;;;;;1.30;1.30;;;;;;;;;;5064119;28;20214;-59
2022/08/08 01:30:16;;;;;;;1.10;1.10;;;;;;;;;;5049530;28;20246;-59
2022/08/08 01:32:48;;;;;;;0.80;0.80;;;;;;;;;;5064027;28;20168;-59
2022/08/08 01:35:23;;;;;;;0.70;0.70;;;;;;;;;;5070168;28;20682;-59
2022/08/08 01:37:57;;;;;;;0.70;0.70;;;;;;;;;;5061984;28;20198;-59
2022/08/08 01:40:43;;;;;;;0.73;0.73;;;;;;;;;;5065873;28;20199;-59
2022/08/08 01:43:19;;;;;;;1.10;1.10;;;;;;;;;;5062667;28;20266;-59
2022/08/08 01:45:48;;;;;;;1.20;1.20;;;;;;;;;;5068753;28;20909;-59
2022/08/08 01:48:27;;;;;;;1.40;1.40;;;;;;;;;;5072592;28;20190;-58
2022/08/08 01:51:11;;;;;;;1.00;1.00;;;;;;;;;;5066460;28;20179;-58
2022/08/08 01:53:37;;;;;;;0.97;0.97;;;;;;;;;;5048886;28;20232;-59
2022/08/08 01:56:13;;;;;;;1.10;1.10;;;;;;;;;;5072358;28;20191;-58
2022/08/08 01:58:58;;;;;;;1.10;1.10;;;;;;;;;;5067929;28;20190;-58
2022/08/08 02:01:42;;;;;;;0.70;0.70;;;;;;;;;;5067913;28;20187;-59
2022/08/08 02:04:14;;;;;;;0.70;0.70;;;;;;;;;;5075660;28;20207;-58
2022/08/08 02:06:50;;;;;;;0.80;0.80;;;;;;;;;;5070722;28;20211;-59
2022/08/08 02:09:34;;;;;;;1.20;1.20;;;;;;;;;;5072262;28;20223;-59
2022/08/08 02:12:01;;;;;;;1.00;1.00;;;;;;;;;;5067165;28;20179;-58
2022/08/08 02:14:32;;;;;;;0.90;0.90;;;;;;;;;;5071058;28;20291;-59
2022/08/08 02:17:10;;;;;;;1.00;1.00;;;;;;;;;;5064698;28;20791;-59
2022/08/08 02:19:39;;;;;;;1.10;1.10;;;;;;;;;;5069580;28;20218;-59
2022/08/08 02:25:03;;;;;;;0.90;0.90;;;;;;;;;;5068844;28;20222;-59
2022/08/08 02:27:32;;;;;;;1.10;1.10;;;;;;;;;;5068580;28;20329;-58
2022/08/08 02:30:17;;;;;;;0.90;0.90;;;;;;;;;;5070238;28;20719;-59
2022/08/08 02:33:01;;;;;;;1.10;1.10;;;;;;;;;;5066024;28;20195;-59
2022/08/08 02:35:46;;;;;;;1.00;1.00;;;;;;;;;;5068740;28;20175;-59
2022/08/08 02:38:12;;;;;;;0.90;0.90;;;;;;;;;;5067909;28;20262;-59
2022/08/08 02:40:56;;;;;;;0.90;0.90;;;;;;;;;;5068285;28;20282;-58
2022/08/08 02:43:41;;;;;;;1.27;1.27;;;;;;;;;;5062101;28;20206;-58
2022/08/08 02:46:16;;;;;;;1.30;1.30;;;;;;;;;;5066744;28;20250;-59
2022/08/08 02:48:54;;;;;;;1.20;1.20;;;;;;;;;;5062557;28;20252;-59
2022/08/08 02:51:39;;;;;;;1.30;1.30;;;;;;;;;;5065235;28;20583;-59
2022/08/08 02:54:05;;;;;;;1.20;1.20;;;;;;;;;;5059880;28;21558;-59
2022/08/08 02:56:37;;;;;;;1.10;1.10;;;;;;;;;;5065271;28;20192;-58
2022/08/08 02:59:09;;;;;;;1.20;1.20;;;;;;;;;;5061635;28;20555;-59
2022/08/08 03:01:38;;;;;;;1.30;1.30;;;;;;;;;;5064811;28;20202;-59
2022/08/08 03:04:13;;;;;;;1.30;1.30;;;;;;;;;;5063122;28;20640;-58
2022/08/08 03:06:39;;;;;;;1.33;1.33;;;;;;;;;;5061329;28;20205;-58
2022/08/08 03:09:31;;;;;;;1.10;1.10;;;;;;;;;;5067326;28;20202;-58
2022/08/08 03:12:10;;;;;;;1.10;1.10;;;;;;;;;;5046843;28;20187;-59
2022/08/08 03:14:36;;;;;;;1.00;1.00;;;;;;;;;;5060595;28;21873;-59
2022/08/08 03:17:06;;;;;;;1.00;1.00;;;;;;;;;;5065954;28;20180;-59
2022/08/08 03:19:50;;;;;;;0.90;0.90;;;;;;;;;;5070527;28;20195;-59
2022/08/08 03:22:16;;;;;;;1.07;1.07;;;;;;;;;;5069927;28;20192;-59
2022/08/08 03:24:42;;;;;;;0.90;0.90;;;;;;;;;;5069018;28;20605;-58
2022/08/08 03:27:09;;;;;;;0.90;0.90;;;;;;;;;;5064847;28;20218;-59
2022/08/08 03:29:38;;;;;;;0.97;0.97;;;;;;;;;;5069716;28;20191;-58
2022/08/08 03:34:48;;;;;;;0.90;0.90;;;;;;;;;;5062000;28;20189;-59
2022/08/08 03:37:17;;;;;;;1.00;1.00;;;;;;;;;;5069056;28;20195;-58
2022/08/08 03:39:44;;;;;;;1.00;1.00;;;;;;;;;;5069215;28;20195;-58
2022/08/08 03:42:14;;;;;;;0.80;0.80;;;;;;;;;;5064445;28;20190;-58
2022/08/08 03:44:40;;;;;;;0.90;0.90;;;;;;;;;;5066023;28;20988;-59
2022/08/08 03:47:06;;;;;;;0.90;0.90;;;;;;;;;;5064358;28;20211;-59
2022/08/08 03:49:32;;;;;;;0.90;0.90;;;;;;;;;;5082338;28;20233;-59
2022/08/08 03:51:58;;;;;;;1.10;1.10;;;;;;;;;;5089602;28;20191;-58
2022/08/08 03:54:24;;;;;;;0.80;0.80;;;;;;;;;;5072169;28;20180;-59
2022/08/08 03:56:50;;;;;;;0.90;0.90;;;;;;;;;;5070771;28;20187;-58
2022/08/08 03:59:16;;;;;;;1.00;1.00;;;;;;;;;;5069724;28;20192;-58
2022/08/08 04:01:42;;;;;;;0.90;0.90;;;;;;;;;;5065357;28;20192;-58
2022/08/08 04:04:08;;;;;;;0.90;0.90;;;;;;;;;;5069528;28;20197;-59
2022/08/08 04:06:34;;;;;;;1.00;1.00;;;;;;;;;;5065280;28;20578;-58
2022/08/08 04:09:00;;;;;;;1.17;1.17;;;;;;;;;;5067198;28;20179;-58
2022/08/08 04:11:26;;;;;;;1.20;1.20;;;;;;;;;;5065893;28;20214;-59
2022/08/08 04:13:52;;;;;;;1.40;1.40;;;;;;;;;;5068069;28;20587;-58
2022/08/08 04:16:19;;;;;;;1.40;1.40;;;;;;;;;;5066717;28;20186;-58
2022/08/08 04:18:47;;;;;;;1.30;1.30;;;;;;;;;;5066123;28;20249;-59
2022/08/08 04:21:13;;;;;;;1.30;1.30;;;;;;;;;;5062158;28;20198;-58
2022/08/08 04:23:39;;;;;;;1.40;1.40;;;;;;;;;;5060300;28;20213;-58
2022/08/08 04:26:05;;;;;;;1.27;1.27;;;;;;;;;;5051769;28;20241;-58
2022/08/08 04:28:31;;;;;;;1.30;1.30;;;;;;;;;;5054093;28;21315;-58
2022/08/08 04:30:57;;;;;;;1.40;1.40;;;;;;;;;;5061997;28;20222;-57
2022/08/08 04:33:23;;;;;;;1.53;1.53;;;;;;;;;;5060399;28;20990;-58
2022/08/08 04:35:49;;;;;;;1.30;1.30;;;;;;;;;;5070302;28;20187;-59
2022/08/08 04:38:15;;;;;;;1.30;1.30;;;;;;;;;;5062954;28;20188;-59
2022/08/08 04:40:41;;;;;;;1.37;1.37;;;;;;;;;;5065728;28;20276;-60
2022/08/08 04:43:07;;;;;;;1.30;1.30;;;;;;;;;;5069360;28;20176;-60
2022/08/08 04:45:33;;;;;;;1.30;1.30;;;;;;;;;;5068932;28;20611;-59
2022/08/08 04:47:59;;;;;;;1.37;1.37;;;;;;;;;;5063560;28;20207;-59
2022/08/08 04:50:25;;;;;;;1.30;1.30;;;;;;;;;;5063807;28;20315;-60
2022/08/08 04:52:51;;;;;;;1.50;1.50;;;;;;;;;;5060385;28;20197;-59
2022/08/08 04:55:17;;;;;;;1.30;1.30;;;;;;;;;;5067841;28;20187;-60
2022/08/08 04:57:43;;;;;;;1.20;1.20;;;;;;;;;;5065168;28;20191;-58
2022/08/08 05:00:09;;;;;;;1.00;1.00;;;;;;;;;;5065495;28;20201;-60
2022/08/08 05:02:35;;;;;;;1.20;1.20;;;;;;;;;;5055402;28;20547;-61
2022/08/08 05:05:01;;;;;;;1.00;1.00;;;;;;;;;;5058090;28;20194;-60
2022/08/08 05:07:27;;;;;;;0.80;0.80;;;;;;;;;;5059497;28;20208;-58
2022/08/08 05:09:53;;;;;;;0.97;0.97;;;;;;;;;;5061452;28;20190;-60
2022/08/08 05:12:19;;;;;;;0.80;0.80;;;;;;;;;;5058721;28;21145;-60
2022/08/08 05:14:45;;;;;;;0.80;0.80;;;;;;;;;;5063665;28;20219;-60
2022/08/08 05:17:11;;;;;;;0.70;0.70;;;;;;;;;;5047884;28;20215;-61
2022/08/08 05:19:36;;;;;;;0.70;0.70;;;;;;;;;;5056560;28;20183;-61
2022/08/08 05:22:06;;;;;;;1.30;1.30;;;;;;;;;;5060172;28;20195;-61
2022/08/08 05:24:32;;;;;;;1.60;1.60;;;;;;;;;;5041146;28;20222;-61
2022/08/08 05:26:58;;;;;;;1.20;1.20;;;;;;;;;;5035899;28;20211;-61
2022/08/08 05:29:24;;;;;;;1.50;1.50;;;;;;;;;;5050803;28;20175;-61
2022/08/08 05:31:50;;;;;;;1.40;1.40;;;;;;;;;;5044938;28;20237;-67
2022/08/08 05:34:17;;;;;;;1.33;1.33;;;;;;;;;;5051947;28;20188;-61
2022/08/08 05:36:43;;;;;;;1.50;1.50;;;;;;;;;;5064495;28;20195;-61
2022/08/08 05:39:09;;;;;;;1.30;1.30;;;;;;;;;;5064949;28;20245;-61
2022/08/08 05:41:35;;;;;;;1.20;1.20;;;;;;;;;;5059039;28;20186;-61
2022/08/08 05:44:25;;;;;;;1.20;1.20;;;;;;;;;;5068472;28;20195;-62
2022/08/08 05:46:52;;;;;;;1.60;1.60;;;;;;;;;;5058633;28;20678;-61
2022/08/08 05:49:18;;;;;;;1.60;1.60;;;;;;;;;;5064462;28;20640;-62
2022/08/08 05:51:44;;;;;;;1.40;1.40;;;;;;;;;;5067210;28;20190;-61
2022/08/08 05:54:10;;;;;;;1.60;1.60;;;;;;;;;;5054026;28;20175;-61
2022/08/08 05:56:37;;;;;;;1.50;1.50;;;;;;;;;;5064128;28;20196;-61
2022/08/08 05:59:04;;;;;;;1.60;1.60;;;;;;;;;;5065081;28;20189;-61
2022/08/08 06:01:31;;;;;;;1.50;1.50;;;;;;;;;;5066597;28;20172;-61
2022/08/08 06:04:03;;;;;;;1.40;1.40;;;;;;;;;;5066001;28;20221;-65
2022/08/08 06:06:30;;;;;;;1.40;1.40;;;;;;;;;;5067742;28;20238;-61
2022/08/08 06:08:57;;;;;;;1.60;1.60;;;;;;;;;;5071745;28;20188;-61
2022/08/08 06:11:23;;;;;;;1.43;1.43;;;;;;;;;;5063318;28;20582;-60
2022/08/08 06:13:49;;;;;;;1.50;1.50;;;;;;;;;;5065244;28;20191;-61
2022/08/08 06:16:15;;;;;;;1.40;1.40;;;;;;;;;;5058287;28;20644;-61
2022/08/08 06:18:41;;;;;;;1.37;1.37;;;;;;;;;;5068596;28;20718;-61
2022/08/08 06:21:08;;;;;;;1.40;1.40;;;;;;;;;;5061034;28;20188;-61
2022/08/08 06:23:33;;;;;;;1.97;1.87;;;;;;;;;;5059005;28;20215;-61
2022/08/08 06:26:06;;;;;;;1.40;1.40;;;;;;;;;;5062779;28;20191;-61
2022/08/08 06:28:33;;;;;;;1.40;1.40;;;;;;;;;;5055335;28;20282;-61
2022/08/08 06:31:00;;;;;;;1.40;1.40;;;;;;;;;;5068920;28;20242;-62
2022/08/08 06:33:27;;;;;;;1.30;1.30;;;;;;;;;;5062121;28;20191;-61
2022/08/08 06:35:53;;;;;;;1.30;1.30;;;;;;;;;;5056005;28;20199;-62
2022/08/08 06:38:21;;;;;;;1.50;1.50;;;;;;;;;;5061830;28;20610;-61
2022/08/08 06:40:51;;;;;;;1.40;1.40;;;;;;;;;;5052329;28;20191;-61
2022/08/08 06:43:18;;;;;;;1.93;1.83;;;;;;;;;;5060321;28;20540;-61
2022/08/08 06:45:44;;;;;;;1.50;1.50;;;;;;;;;;5062451;28;20190;-62
2022/08/08 06:48:10;;;;;;;1.67;1.67;;;;;;;;;;5060652;28;20590;-61
2022/08/08 06:50:36;;;;;;;1.60;1.60;;;;;;;;;;5059269;28;20700;-60
2022/08/08 06:53:02;;;;;;;1.60;1.60;;;;;;;;;;5061768;28;20203;-61
2022/08/08 06:55:28;;;;;;;1.60;1.60;;;;;;;;;;5061306;28;21089;-60
2022/08/08 06:57:54;;;;;;;1.40;1.40;;;;;;;;;;5062391;28;20203;-62
2022/08/08 07:00:20;;;;;;;1.40;1.40;;;;;;;;;;5069800;28;20267;-62
2022/08/08 07:02:51;;;;;;;1.50;1.50;;;;;;;;;;5069563;28;20179;-62
2022/08/08 07:05:17;;;;;;;1.30;1.30;;;;;;;;;;5063297;28;20336;-62
2022/08/08 07:07:47;;;;;;;1.10;1.10;;;;;;;;;;5057286;28;20703;-62
2022/08/08 07:10:13;;;;;;;1.20;1.20;;;;;;;;;;5041058;28;20195;-62
2022/08/08 07:12:43;;;;;;;1.50;1.50;;;;;;;;;;5058381;28;20187;-62
2022/08/08 07:15:10;;;;;;;1.20;1.20;;;;;;;;;;5063987;28;20294;-62
2022/08/08 07:17:36;;;;;;;0.70;0.70;;;;;;;;;;5070935;28;20192;-62
2022/08/08 07:20:03;;;;;;;0.80;0.80;;;;;;;;;;5065874;28;20198;-62
2022/08/08 07:23:01;;;;;;;0.70;0.70;;;;;;;;;;5062468;28;20184;-62
2022/08/08 07:25:30;;;;;;;0.70;0.70;;;;;;;;;;5023638;28;21162;-62
2022/08/08 07:27:59;;;;;;;0.70;0.70;;;;;;;;;;5063982;28;20219;-58
2022/08/08 07:30:25;;;;;;;0.60;0.60;;;;;;;;;;5058844;28;20266;-59
2022/08/08 07:32:51;;;;;;;0.80;0.80;;;;;;;;;;5067219;28;20318;-59
2022/08/08 07:35:17;;;;;;;0.90;0.90;;;;;;;;;;5066173;28;20183;-59
2022/08/08 07:37:43;;;;;;;1.00;1.00;;;;;;;;;;5064567;28;21017;-59
2022/08/08 07:40:10;;;;;;;1.73;1.70;;;;;;;;;;5068741;28;21219;-59
2022/08/08 07:42:37;;;;;;;1.70;1.60;;;;;;;;;;5062983;28;20641;-59
2022/08/08 07:45:03;;;;;;;1.00;1.00;;;;;;;;;;5063949;28;20215;-59
2022/08/08 07:47:29;;;;;;;1.80;1.70;;;;;;;;;;5066203;28;20627;-59
2022/08/08 07:49:55;;;;;;;1.40;1.40;;;;;;;;;;5064307;28;20563;-59
2022/08/08 07:52:21;;;;;;;1.20;1.20;;;;;;;;;;5056484;28;20195;-58
2022/08/08 07:54:50;;;;;;;1.30;1.30;;;;;;;;;;5062326;28;20179;-63
2022/08/08 07:57:35;;;;;;;1.30;1.30;;;;;;;;;;5061617;28;20195;-63
2022/08/08 08:00:05;;;;;;;1.60;1.60;;;;;;;;;;5062035;28;20195;-62
2022/08/08 08:02:36;;;;;;;1.90;1.80;;;;;;;;;;5042761;28;20205;-62
2022/08/08 08:05:02;;;;;;;2.05;1.95;;;;;;;;;;5047412;28;20198;-62
2022/08/08 08:07:33;;;;;;;2.80;2.70;;;;;;;;;;5062047;28;20218;-62
2022/08/08 08:09:59;;;;;;;1.00;1.00;;;;;;;;;;5060722;28;20186;-63
2022/08/08 08:12:25;;;;;;;1.00;1.00;;;;;;;;;;5061374;28;20573;-62
2022/08/08 08:14:56;;;;;;;1.00;1.00;;;;;;;;;;5067136;28;20203;-61
2022/08/08 08:17:22;;;;;;;1.00;1.00;;;;;;;;;;5059378;28;20245;-62
2022/08/08 08:19:48;;;;;;;0.90;0.90;;;;;;;;;;5052620;28;20187;-62
2022/08/08 08:22:15;;;;;;;1.00;1.00;;;;;;;;;;5060752;28;20188;-62
2022/08/08 08:24:43;;;;;;;0.98;0.98;;;;;;;;;;5066505;28;20207;-62
2022/08/08 08:27:09;;;;;;;0.90;0.90;;;;;;;;;;5070860;28;20230;-62
2022/08/08 08:29:35;;;;;;;0.90;0.90;;;;;;;;;;5065600;28;20551;-62
2022/08/08 08:32:01;;;;;;;1.10;1.10;;;;;;;;;;5067096;28;20770;-62
2022/08/08 08:34:27;;;;;;;0.90;0.90;;;;;;;;;;5071784;28;20195;-61
2022/08/08 08:36:53;;;;;;;0.90;0.90;;;;;;;;;;5066828;28;20199;-61
2022/08/08 08:39:20;;;;;;;0.90;0.90;;;;;;;;;;5060623;28;20209;-62
2022/08/08 08:41:46;;;;;;;0.90;0.90;;;;;;;;;;5060066;28;20183;-62
2022/08/08 08:44:12;;;;;;;0.90;0.90;;;;;;;;;;5068117;28;20267;-63
2022/08/08 08:46:38;;;;;;;0.90;0.90;;;;;;;;;;5052527;28;20591;-62
2022/08/08 08:49:04;;;;;;;0.88;0.88;;;;;;;;;;5069714;28;20187;-63
2022/08/08 08:51:30;;;;;;;0.90;0.90;;;;;;;;;;5055984;28;20274;-60
2022/08/08 08:53:56;;;;;;;1.00;1.00;;;;;;;;;;5060798;28;20211;-59
2022/08/08 08:56:24;;;;;;;1.00;1.00;;;;;;;;;;5063455;28;20188;-60
2022/08/08 08:58:50;;;;;;;0.90;0.90;;;;;;;;;;5052868;28;20195;-59
2022/08/08 09:01:17;;;;;;;0.90;0.90;;;;;;;;;;5066006;28;20213;-61
2022/08/08 09:03:43;;;;;;;0.95;0.95;;;;;;;;;;5068583;28;20186;-59
2022/08/08 09:06:10;;;;;;;1.00;1.00;;;;;;;;;;5069456;28;20647;-60
2022/08/08 09:08:37;;;;;;;1.00;1.00;;;;;;;;;;5086386;28;20203;-59
2022/08/08 09:11:03;;;;;;;1.00;1.00;;;;;;;;;;5071209;28;20704;-59
2022/08/08 09:13:28;;;;;;;1.00;1.00;;;;;;;;;;5067863;28;20187;-60
2022/08/08 09:15:55;;;;;;;0.90;0.90;;;;;;;;;;5065073;28;20191;-59
2022/08/08 09:18:22;;;;;;;1.65;1.65;;;;;;;;;;5044287;28;20187;-59
2022/08/08 09:20:48;;;;;;;0.90;0.90;;;;;;;;;;5066813;28;20183;-59
2022/08/08 09:23:14;;;;;;;1.00;1.00;;;;;;;;;;5065638;28;20186;-60
2022/08/08 09:25:43;;;;;;;0.90;0.90;;;;;;;;;;5061413;28;20182;-60
2022/08/08 09:28:09;;;;;;;1.00;1.00;;;;;;;;;;5069913;28;20222;-60
2022/08/08 09:30:35;;;;;;;1.10;1.10;;;;;;;;;;5065684;28;20230;-59
2022/08/08 09:33:02;;;;;;;1.10;1.10;;;;;;;;;;5066531;28;20562;-59
2022/08/08 09:35:28;;;;;;;1.58;1.58;;;;;;;;;;5068212;28;20243;-60
2022/08/08 09:38:03;;;;;;;1.50;1.50;;;;;;;;;;5062496;28;20186;-60
2022/08/08 09:40:30;;;;;;;1.65;1.65;;;;;;;;;;5060245;28;20655;-60
2022/08/08 09:43:04;;;;;;;1.60;1.60;;;;;;;;;;5058209;28;20179;-60
2022/08/08 09:45:31;;;;;;;1.42;1.42;;;;;;;;;;5062842;28;20187;-60
2022/08/08 09:47:58;;;;;;;1.42;1.42;;;;;;;;;;5060052;28;21344;-60
2022/08/08 09:50:29;;;;;;;1.20;1.20;;;;;;;;;;5062227;28;20392;-59
2022/08/08 09:52:55;;;;;;;1.42;1.42;;;;;;;;;;5058917;28;20206;-59
2022/08/08 09:55:21;;;;;;;1.40;1.40;;;;;;;;;;5059572;28;20187;-61
2022/08/08 09:57:48;;;;;;;1.50;1.50;;;;;;;;;;5061728;28;20641;-61
2022/08/08 10:00:15;;;;;;;1.60;1.60;;;;;;;;;;5056395;28;20197;-61
2022/08/08 10:02:41;;;;;;;0.90;0.90;;;;;;;;;;5055839;28;20784;-64
2022/08/08 10:05:09;;;;;;;1.00;1.00;;;;;;;;;;5063316;28;20188;-61
2022/08/08 10:07:35;;;;;;;1.00;1.00;;;;;;;;;;5054270;28;20242;-61
2022/08/08 10:10:01;;;;;;;1.40;1.40;;;;;;;;;;5061622;28;20179;-61
2022/08/08 10:12:35;;;;;;;1.00;1.00;;;;;;;;;;5068034;28;20180;-62
2022/08/08 10:15:01;;;;;;;1.33;1.33;;;;;;;;;;5057673;28;20180;-62
2022/08/08 10:17:27;;;;;;;1.40;1.40;;;;;;;;;;5056038;28;20183;-61
2022/08/08 10:20:00;;;;;;;1.60;1.60;;;;;;;;;;5065922;28;20190;-61
2022/08/08 10:22:27;;;;;;;1.50;1.50;;;;;;;;;;5066096;28;21000;-61
2022/08/08 10:24:54;;;;;;;1.50;1.50;;;;;;;;;;5071482;28;20216;-61
2022/08/08 10:27:21;;;;;;;1.58;1.58;;;;;;;;;;5053289;28;20303;-62
2022/08/08 10:30:13;;;;;;;1.80;1.70;;;;;;;;;;5060136;28;20178;-61
2022/08/08 10:32:40;;;;;;;1.80;1.70;;;;;;;;;;5056863;28;20211;-61
2022/08/08 10:35:07;;;;;;;1.60;1.60;;;;;;;;;;5068765;28;20180;-62
2022/08/08 10:37:33;;;;;;;1.65;1.65;;;;;;;;;;5064002;28;20194;-61
2022/08/08 10:40:00;;;;;;;1.60;1.60;;;;;;;;;;5066227;28;20928;-61
2022/08/08 10:42:32;;;;;;;1.60;1.60;;;;;;;;;;5060572;28;20199;-61
2022/08/08 10:45:02;;;;;;;1.52;1.52;;;;;;;;;;5063539;28;20175;-61
2022/08/08 10:47:28;;;;;;;1.42;1.42;;;;;;;;;;5057846;28;21133;-61
2022/08/08 10:49:55;;;;;;;0.90;0.90;;;;;;;;;;5069258;28;20183;-62
2022/08/08 10:52:22;;;;;;;0.90;0.90;;;;;;;;;;5053398;28;20899;-63
2022/08/08 10:54:58;;;;;;;0.93;0.93;;;;;;;;;;5060860;28;20205;-61
2022/08/08 10:57:24;;;;;;;0.90;0.90;;;;;;;;;;5062877;28;20547;-62
2022/08/08 11:00:09;;;;;;;0.90;0.90;;;;;;;;;;5068504;28;20197;-61
2022/08/08 11:02:35;;;;;;;1.10;1.10;;;;;;;;;;5059341;28;20239;-61
2022/08/08 11:05:05;;;;;;;1.00;1.00;;;;;;;;;;5063431;28;20643;-60
2022/08/08 11:07:35;;;;;;;1.00;1.00;;;;;;;;;;5065354;28;20203;-60
2022/08/08 11:10:02;;;;;;;1.00;1.00;;;;;;;;;;5061223;28;20191;-60
2022/08/08 11:12:28;;;;;;;0.90;0.90;;;;;;;;;;5055394;28;20184;-60
2022/08/08 11:15:01;;;;;;;0.88;0.88;;;;;;;;;;5059628;28;20183;-60
2022/08/08 11:17:30;;;;;;;0.80;0.80;;;;;;;;;;5051585;28;20245;-60
2022/08/08 11:19:56;;;;;;;0.70;0.70;;;;;;;;;;5058013;28;20176;-60
2022/08/08 11:22:26;;;;;;;0.80;0.80;;;;;;;;;;5058729;28;20232;-60
2022/08/08 11:24:59;;;;;;;0.80;0.80;;;;;;;;;;5061929;28;20280;-66
2022/08/08 11:27:25;;;;;;;0.70;0.70;;;;;;;;;;5062131;28;20313;-65
2022/08/08 11:29:50;;;;;;;0.70;0.70;;;;;;;;;;5055660;28;20183;-65
2022/08/08 11:32:16;;;;;;;0.73;0.73;;;;;;;;;;5035271;28;20335;-64
2022/08/08 11:34:43;;;;;;;0.70;0.70;;;;;;;;;;5048257;28;20190;-66
2022/08/08 11:37:09;;;;;;;0.90;0.90;;;;;;;;;;5043571;28;20194;-65
2022/08/08 11:39:35;;;;;;;0.90;0.90;;;;;;;;;;5059120;28;20308;-65
2022/08/08 11:42:01;;;;;;;0.90;0.90;;;;;;;;;;5063950;28;20203;-65
2022/08/08 11:44:27;;;;;;;0.90;0.90;;;;;;;;;;5057631;28;20744;-65
2022/08/08 11:46:56;;;;;;;0.80;0.80;;;;;;;;;;5059051;28;20216;-65
2022/08/08 11:49:23;;;;;;;0.70;0.70;;;;;;;;;;5049840;28;20183;-65
2022/08/08 11:51:49;;;;;;;0.70;0.70;;;;;;;;;;5058594;28;20288;-65
2022/08/08 11:54:15;;;;;;;0.80;0.80;;;;;;;;;;5058886;28;20183;-65
2022/08/08 11:56:41;;;;;;;0.70;0.70;;;;;;;;;;5063623;28;20194;-65
2022/08/08 11:59:08;;;;;;;0.80;0.80;;;;;;;;;;5057887;28;20194;-65
2022/08/08 12:01:34;;;;;;;0.80;0.80;;;;;;;;;;5060329;28;20183;-65
2022/08/08 12:04:00;;;;;;;0.80;0.80;;;;;;;;;;5044796;28;20279;-65
2022/08/08 12:06:26;;;;;;;0.80;0.80;;;;;;;;;;5060416;28;20214;-65
2022/08/08 12:08:51;;;;;;;0.70;0.70;;;;;;;;;;5062023;28;20179;-65
2022/08/08 12:11:18;;;;;;;0.70;0.70;;;;;;;;;;5046213;28;20584;-65
2022/08/08 12:13:44;;;;;;;0.70;0.70;;;;;;;;;;5066684;28;20183;-66
2022/08/08 12:16:17;;;;;;;0.70;0.70;;;;;;;;;;5059107;28;20224;-66
2022/08/08 12:18:55;;;;;;;0.70;0.70;;;;;;;;;;5064284;28;20190;-66
2022/08/08 12:21:25;;;;;;;0.70;0.70;;;;;;;;;;5058737;28;20652;-66
2022/08/08 12:24:12;;;;;;;0.70;0.70;;;;;;;;;;5059664;28;20658;-65
2022/08/08 12:26:38;;;;;;;0.70;0.70;;;;;;;;;;5053326;28;20218;-65
2022/08/08 12:29:20;;;;;;;0.70;0.70;;;;;;;;;;5058228;28;20233;-64
2022/08/08 12:31:45;;;;;;;0.68;0.68;;;;;;;;;;5061776;28;20227;-65
2022/08/08 12:34:11;;;;;;;0.70;0.70;;;;;;;;;;5049148;28;20741;-65
2022/08/08 12:36:41;;;;;;;0.68;0.68;;;;;;;;;;5053308;28;20254;-65
2022/08/08 12:39:07;;;;;;;0.70;0.70;;;;;;;;;;5061163;28;20695;-65
2022/08/08 12:41:35;;;;;;;0.65;0.65;;;;;;;;;;5055000;28;20202;-65
2022/08/08 12:44:04;;;;;;;0.85;0.85;;;;;;;;;;5059508;28;20175;-65
2022/08/08 12:46:30;;;;;;;0.73;0.73;;;;;;;;;;5058562;28;20309;-65
2022/08/08 12:48:57;;;;;;;0.90;0.90;;;;;;;;;;5056201;28;20190;-65
2022/08/08 12:51:23;;;;;;;0.80;0.80;;;;;;;;;;5065272;28;20317;-65
2022/08/08 12:53:59;;;;;;;0.90;0.90;;;;;;;;;;5059521;28;20175;-65
2022/08/08 12:56:35;;;;;;;1.00;1.00;;;;;;;;;;5059040;28;20250;-64
2022/08/08 12:59:01;;;;;;;1.00;1.00;;;;;;;;;;5051963;28;20725;-65
2022/08/08 13:01:34;;;;;;;1.00;1.00;;;;;;;;;;5057581;28;20278;-65
2022/08/08 13:04:00;;;;;;;0.90;0.90;;;;;;;;;;5062694;28;20215;-66
2022/08/08 13:06:26;;;;;;;0.80;0.80;;;;;;;;;;5064572;28;20329;-65
2022/08/08 13:08:52;;;;;;;1.17;1.17;;;;;;;;;;5065089;28;20640;-65
2022/08/08 13:11:19;;;;;;;1.30;1.30;;;;;;;;;;5062354;28;20653;-64
2022/08/08 13:13:49;;;;;;;1.30;1.30;;;;;;;;;;5059582;28;20191;-64
2022/08/08 13:16:16;;;;;;;1.30;1.30;;;;;;;;;;5063613;28;20180;-63
2022/08/08 13:18:42;;;;;;;1.30;1.30;;;;;;;;;;5065871;28;21950;-62
2022/08/08 13:21:08;;;;;;;1.30;1.30;;;;;;;;;;5061696;28;20175;-63
2022/08/08 13:23:34;;;;;;;1.30;1.30;;;;;;;;;;5054993;28;20210;-63
2022/08/08 13:26:00;;;;;;;1.30;1.30;;;;;;;;;;5063625;28;20187;-63
2022/08/08 13:28:30;;;;;;;1.30;1.30;;;;;;;;;;5062567;28;20218;-63
2022/08/08 13:30:56;;;;;;;1.52;1.48;;;;;;;;;;5061904;28;21031;-63
2022/08/08 13:33:22;;;;;;;1.20;1.20;;;;;;;;;;5063724;28;20180;-63
2022/08/08 13:35:47;;;;;;;1.30;1.30;;;;;;;;;;5066427;28;20171;-62
2022/08/08 13:38:13;;;;;;;1.50;1.50;;;;;;;;;;5064698;28;20194;-63
2022/08/08 13:40:41;;;;;;;1.58;1.58;;;;;;;;;;5068297;28;20199;-63
2022/08/08 13:43:07;;;;;;;1.42;1.42;;;;;;;;;;5070247;28;20183;-63
2022/08/08 13:45:33;;;;;;;1.23;1.23;;;;;;;;;;5089520;28;20212;-63
2022/08/08 13:47:59;;;;;;;1.30;1.30;;;;;;;;;;5068444;28;20317;-63
2022/08/08 13:50:25;;;;;;;1.17;1.17;;;;;;;;;;5068631;28;20184;-63
2022/08/08 13:52:52;;;;;;;1.10;1.10;;;;;;;;;;5066271;28;20231;-63
2022/08/08 13:55:18;;;;;;;1.10;1.10;;;;;;;;;;5067241;28;20261;-64
2022/08/08 13:57:44;;;;;;;1.20;1.20;;;;;;;;;;5074956;28;20186;-66
2022/08/08 14:00:17;;;;;;;1.30;1.30;;;;;;;;;;5070347;28;20191;-67
2022/08/08 14:02:43;;;;;;;1.20;1.20;;;;;;;;;;5074024;28;20192;-65
2022/08/08 14:05:10;;;;;;;1.40;1.40;;;;;;;;;;5055101;28;20194;-65
2022/08/08 14:07:36;;;;;;;1.30;1.30;;;;;;;;;;5064937;28;20201;-65
2022/08/08 14:10:07;;;;;;;1.27;1.27;;;;;;;;;;5065638;28;20302;-65
2022/08/08 14:12:34;;;;;;;1.30;1.30;;;;;;;;;;5067665;28;20653;-65
2022/08/08 14:15:00;;;;;;;1.30;1.30;;;;;;;;;;5071505;28;20194;-65
2022/08/08 14:17:26;;;;;;;1.30;1.30;;;;;;;;;;5062281;28;21012;-65
2022/08/08 14:19:59;;;;;;;1.30;1.30;;;;;;;;;;5041340;28;20193;-65
2022/08/08 14:22:26;;;;;;;1.30;1.30;;;;;;;;;;5061609;28;20186;-66
2022/08/08 14:24:59;;;;;;;1.30;1.30;;;;;;;;;;5061700;28;21331;-64
2022/08/08 14:27:31;;;;;;;1.30;1.30;;;;;;;;;;5059053;28;21123;-66
2022/08/08 14:30:01;;;;;;;1.35;1.35;;;;;;;;;;5062213;28;20191;-66
2022/08/08 14:32:27;;;;;;;1.40;1.40;;;;;;;;;;5056027;28;20190;-67
2022/08/08 14:34:54;;;;;;;1.27;1.27;;;;;;;;;;5065040;28;20305;-65
2022/08/08 14:37:20;;;;;;;1.20;1.20;;;;;;;;;;5059814;28;21162;-66
2022/08/08 14:39:54;;;;;;;1.20;1.20;;;;;;;;;;5059139;28;20187;-67
2022/08/08 14:42:26;;;;;;;1.35;1.35;;;;;;;;;;5065156;28;20318;-67
2022/08/08 14:44:55;;;;;;;1.20;1.20;;;;;;;;;;5065821;28;20183;-66
2022/08/08 14:47:21;;;;;;;1.20;1.20;;;;;;;;;;5060174;28;20234;-67
2022/08/08 14:49:47;;;;;;;1.20;1.20;;;;;;;;;;5071919;28;20229;-66
2022/08/08 14:52:13;;;;;;;1.20;1.20;;;;;;;;;;5057593;28;20290;-67
2022/08/08 14:54:46;;;;;;;1.20;1.20;;;;;;;;;;5067631;28;20544;-66
2022/08/08 14:57:13;;;;;;;1.20;1.20;;;;;;;;;;5061820;28;20179;-65
2022/08/08 14:59:39;;;;;;;1.30;1.30;;;;;;;;;;5060852;28;20535;-65